Aviation Digital Data Service (ADDS)

Output produced by TAFs form (0051 UTC 18 November 2017)
found at http://aviationweather.gov/adds/tafs/
 
KLND 172324Z 1800/1824 33012KT P6SM VCSH SCT020 BKN040 
     FM180400 VRB05KT P6SM SCT040 BKN080